Grace, ID (83241)

12:07 AM MDT on August 31, 2016 (GMT -0600)
One Mile Road | | Change Station
Active Advisory: Fire Weather Watch

Elev 5538 ft 42.56 °N, 111.74 °W | Updated 8 minutes ago

Clear
Clear
63.3 °F
Feels Like 63.3 °F
N
1.0
Wind Variable Wind from NNW
Gusts 3.0 mph

Today
High -- | Low -- °F
--% Chance of Precip.
Yesterday
High -- | Low -- °F
Precip. -- in
Pressure 30.23 in
Visibility -9999.0 miles
Clouds Clear
Dew Point 36 °F
Humidity 37%
Rainfall in
Snow Depth Not available.
6:51 AM 8:01 PM
Waning Crescent, 1% visible
METAR KAFO 310555Z AUTO 00000KT CLR 12/00 A3023 RMK AO2 TSNO
Pressure 30.23 in
Visibility -9999.0 miles
Clouds Clear
Dew Point 36 °F
Humidity 37%
Rainfall in
Snow Depth Not available.
6:51 AM 8:01 PM
Waning Crescent, 1% visible
METAR KAFO 310555Z AUTO 00000KT CLR 12/00 A3023 RMK AO2 TSNO

10-Day Weather Forecast

Almanac

Astronomy

Aug. 31, 2016 Rise Set
Actual Time
Civil Twilight
Nautical Twilight
Astronomical Twilight
Moon
Length of Visible Light
Length of Day
Tomorrow will be .
, % of the Moon is Illuminated

Today's Extremes

State Highs State Lows

Community

WunderPhotos

Upload Photos

1,936,040 photos uploaded!

WunderBlog® & News

Nearby

Air Quality

  Air Quality AQ Index Pollutant
Not available.

Snow Depth

Station Depth Elevation

Earthquake Activity

City Distance Mag. Time & Date
Minimum magnitude displayed is 2.5.

Coastal Water Temperatures

Place Temperature

Stations

Nearby Weather Stations

Station Location Temp. Windchill Dew Point Humidity Wind Precip. Elev Updated Type
                   

Watches & Warnings

Fire Weather Watch
Issued: 2:52 PM MDT Aug. 30, 2016 – National Weather Service

... Fire Weather Watch in effect from Thursday afternoon through
Thursday evening for gusty winds and thunderstorms for fire
weather zones 411 and 413...

The National Weather Service in Pocatello has issued a Fire
Weather Watch... which is in effect from Thursday afternoon
through Thursday evening.

* Affected area... fire weather zone 411. Fire weather zone 413.

* Wind... wind gusts 25 to 30 mph with stronger outflow winds
within thunderstorms during the afternoon and early evening.

* Thunderstorms... widely scattered thunderstorms during the
afternoon and early evening hours. These thunderstorms may
continue into the overnight hours.

* Cwr... 10 to 20 percent.

* Impacts... any fires that develop will likely spread rapidly.
Outdoor burning is not recommended.

Precautionary/preparedness actions...

A Fire Weather Watch means that critical fire weather conditions
are forecast to occur. Listen for later forecasts and possible
red flag warnings.